Погода Ютрковона 2 недели

Варминско-Мазурское воеводство, Польша

18 - 31 мая
  • 18мая
    Сегодня
    +10°
    +25°
    Ясно и безоблачно
    ВремяПогодаТемператураВлажностьДавлениеВетер, м/сВероятность осадков
    02:00Ясно и безоблачно+11°C60 %753 мм2.0 м/с2 %
    05:00Ясно и безоблачно+10°C67 %753 мм2.3 м/с2 %
    08:00Ясно и безоблачно+16°C57 %753 мм2.8 м/с2 %
    11:00Ясно и безоблачно+22°C37 %753 мм4.8 м/с2 %
    14:00Ясно и безоблачно+24°C33 %752 мм4.5 м/с2 %
    17:00Ясно и безоблачно+24°C32 %750 мм4.4 м/с2 %
    20:00Ясно и безоблачно+20°C58 %750 мм2.0 м/с1 %
    23:00Ясно и безоблачно+16°C63 %750 мм2.1 м/с2 %
  • 19мая
    Воскресенье
    +11°
    +23°
    Практически безоблачно
    ВремяПогодаТемператураВлажностьДавлениеВетер, м/сВероятность осадков
    02:00Ясно и безоблачно+12°C71 %750 мм1.9 м/с2 %
    05:00Ясно и безоблачно+11°C75 %750 мм2.3 м/с2 %
    08:00Ясно и безоблачно+17°C63 %750 мм2.8 м/с2 %
    11:00Практически безоблачно+22°C36 %750 мм5.0 м/с2 %
    14:00Практически безоблачно+22°C35 %749 мм4.4 м/с5 %
    17:00Облачно с прояснениями+23°C34 %748 мм3.7 м/с12 %
    20:00Практически безоблачно+19°C51 %748 мм2.0 м/с6 %
    23:00Ясно и безоблачно+15°C61 %748 мм1.8 м/с3 %
  • 20мая
    Понедельник
    +11°
    +23°
    Небольшая облачность
    ВремяПогодаТемператураВлажностьДавлениеВетер, м/сВероятность осадков
    02:00Практически безоблачно+13°C79 %748 мм1.6 м/с3 %
    05:00Небольшая облачность+11°C87 %748 мм1.9 м/с4 %
    08:00Ясно и безоблачно+17°C72 %749 мм2.2 м/с8 %
    11:00Небольшая облачность+21°C49 %749 мм3.0 м/с26 %
    14:00Небольшая облачность+22°C44 %749 мм2.6 м/с38 %
    17:00Облачно с прояснениями, небольшой дождь+22°C45 %749 мм3.0 м/с54 %
    20:00Облачно с прояснениями+20°C66 %750 мм1.9 м/с32 %
    23:00Небольшая облачность+16°C82 %750 мм1.6 м/с2 %
  • 21мая
    Вторник
    +13°
    +25°
    Небольшая облачность и лёгкий дождик
    ВремяПогодаТемператураВлажностьДавлениеВетер, м/сВероятность осадков
    02:00Практически безоблачно+13°C92 %751 мм1.5 м/с2 %
    05:00Практически безоблачно+12°C95 %751 мм2.0 м/с2 %
    08:00Ясно и безоблачно+17°C77 %752 мм3.0 м/с2 %
    11:00Практически безоблачно+22°C55 %752 мм4.5 м/с18 %
    14:00Небольшая облачность и лёгкий дождик+25°C47 %751 мм4.3 м/с30 %
    17:00Практически безоблачно+25°C46 %750 мм4.3 м/с41 %
    20:00Ясно и безоблачно+21°C64 %750 мм2.9 м/с11 %
    23:00Ясно и безоблачно+18°C79 %751 мм3.1 м/с2 %
  • 22мая
    Среда
    +14°
    +25°
    Ясно и безоблачно
    ВремяПогодаТемператураВлажностьДавлениеВетер, м/сВероятность осадков
    02:00Ясно и безоблачно+14°C90 %750 мм2.8 м/с2 %
    05:00Ясно и безоблачно+14°C95 %750 мм3.5 м/с3 %
    08:00Небольшая облачность+18°C75 %750 мм5.0 м/с3 %
    11:00Небольшая облачность+23°C52 %750 мм6.4 м/с11 %
    14:00Ясно и безоблачно+25°C50 %749 мм6.0 м/с18 %
    17:00Небольшая облачность+24°C55 %749 мм5.6 м/с26 %
    20:00Практически безоблачно+22°C71 %749 мм4.2 м/с12 %
    23:00Ясно и безоблачно+18°C78 %750 мм4.2 м/с5 %
Мы используем cookies
Соглашаюсь